Caribe Navigator — V2PW6 — position and weather

sailwx.info

Track history (hours):
 
Tides and Currents Weather Stations Pressure Air Temp Water Temp Dewpoint Dewpoint Depression Visibility Wind Speed Wind Dir Waves Ship Positions

Caribe Navigator

Last reported at 2014-Oct-23 22:32 UTC. Time now 2014-Oct-24 08:30 UTC.
Position N 25°37' W 080°02'.

Length 100 m; draft 4.9 m.

Type: Cargo ship. MMSI: 305289000.

Date/timePositionNaut miles runAvg speedWind from/ knotsBaromVisibWave heightAir tempDewpointWater temp
2014-Oct-23 22:32N 25°37' W 080°02'1111.6
2014-Oct-23 21:33N 25°48' W 080°03'1312.9
2014-Oct-23 20:33N 26°01' W 080°04'5 4.3
2014-Oct-23 19:24N 26°05' W 080°07'0 0.0
2014-Oct-23 18:24N 26°05' W 080°07'0 0.0
2014-Oct-23 17:27N 26°05' W 080°07'0 0.0
2014-Oct-23 16:27N 26°05' W 080°07'0 0.0
2014-Oct-23 15:27N 26°05' W 080°07'0 0.0
2014-Oct-23 14:27N 26°05' W 080°07'0 0.0
2014-Oct-23 13:27N 26°05' W 080°07'0 0.0
2014-Oct-23 12:30N 26°05' W 080°07'0 0.0
2014-Oct-23 11:30N 26°05' W 080°07'0 0.0
2014-Oct-23 10:30N 26°05' W 080°07'0 0.0
2014-Oct-23 09:30N 26°05' W 080°07'0 0.0
2014-Oct-23 08:30N 26°05' W 080°07'0 0.0
2014-Oct-23 07:33N 26°05' W 080°07'0 0.0
2014-Oct-23 06:33N 26°05' W 080°07'0 0.0
2014-Oct-23 05:33N 26°05' W 080°07'0 0.0
2014-Oct-23 04:33N 26°05' W 080°07'0 0.0
2014-Oct-23 03:33N 26°05' W 080°07'0 0.0
2014-Oct-23 02:33N 26°05' W 080°07'0 0.0
2014-Oct-23 01:33N 26°05' W 080°07'0 0.0
2014-Oct-23 00:33N 26°05' W 080°07'0 0.0
2014-Oct-22 23:33N 26°05' W 080°07'0 0.0
2014-Oct-22 22:33N 26°05' W 080°07'0 0.0
2014-Oct-22 21:33N 26°05' W 080°07'0 0.0
2014-Oct-22 20:33N 26°05' W 080°07'0 0.0
2014-Oct-22 19:33N 26°05' W 080°07'0 0.0
2014-Oct-22 18:24N 26°05' W 080°07'0 0.0
2014-Oct-22 17:27N 26°05' W 080°07'4 4.2
2014-Oct-22 16:33N 26°03' W 080°04'1615.9
2014-Oct-22 15:33N 25°47' W 080°01'  
2014-Oct-17 00:06N 25°35' W 080°02'611.1
2014-Oct-16 23:33N 25°41' W 080°02'1111.4
2014-Oct-16 22:33N 25°52' W 080°03'1212.1
2014-Oct-16 21:33N 26°04' W 080°05'3 2.2
2014-Oct-16 20:24N 26°05' W 080°07'0 0.0
2014-Oct-16 19:27N 26°05' W 080°07'0 0.0
2014-Oct-16 18:27N 26°05' W 080°07'0 0.0
2014-Oct-16 17:27N 26°05' W 080°07'0 0.0
2014-Oct-16 16:27N 26°05' W 080°07'0 0.0
2014-Oct-16 15:27N 26°05' W 080°07'0 0.0
2014-Oct-16 14:30N 26°05' W 080°07'0 0.0
2014-Oct-16 13:30N 26°05' W 080°07'0 0.0
2014-Oct-16 12:30N 26°05' W 080°07'0 0.0
2014-Oct-16 11:30N 26°05' W 080°07'0 0.0
2014-Oct-16 10:27N 26°05' W 080°07'0 0.0
2014-Oct-16 09:33N 26°05' W 080°07'0 0.0
2014-Oct-16 08:33N 26°05' W 080°07'0 0.0
2014-Oct-16 07:33N 26°05' W 080°07'0 0.0
2014-Oct-16 06:30N 26°05' W 080°07'0 0.0
2014-Oct-16 05:33N 26°05' W 080°07'0 0.0
2014-Oct-16 04:30N 26°05' W 080°07'0 0.0
2014-Oct-16 03:33N 26°05' W 080°07'0 0.0
2014-Oct-16 02:33N 26°05' W 080°07'0 0.0
2014-Oct-16 01:33N 26°05' W 080°07'0 0.0
2014-Oct-16 00:33N 26°05' W 080°07'0 0.0
2014-Oct-15 23:33N 26°05' W 080°07'0 0.0
2014-Oct-15 22:33N 26°05' W 080°07'0 0.0
2014-Oct-15 21:24N 26°05' W 080°07'0 0.0
2014-Oct-15 20:24N 26°05' W 080°07'0 0.0
2014-Oct-15 19:24N 26°05' W 080°07'1 1.5
2014-Oct-15 18:33N 26°06' W 080°06'1514.8
2014-Oct-15 17:34N 25°52' W 079°60'  
Track history (hours):
 
Tides and Currents Weather Stations Pressure Air Temp Water Temp Dewpoint Dewpoint Depression Visibility Wind Speed Wind Dir Waves Ship Positions

Caribe Navigator

Last reported at 2014-Oct-23 22:32 UTC. Time now 2014-Oct-24 08:30 UTC.
Position N 25°37' W 080°02'.

Length 100 m; draft 4.9 m.

Type: Cargo ship. MMSI: 305289000.

Date/timePositionNaut miles runAvg speedWind from/ knotsBaromVisibWave heightAir tempDewpointWater temp
2014-Oct-23 22:32N 25°37' W 080°02'1111.6
2014-Oct-23 21:33N 25°48' W 080°03'1312.9
2014-Oct-23 20:33N 26°01' W 080°04'5 4.3
2014-Oct-23 19:24N 26°05' W 080°07'0 0.0
2014-Oct-23 18:24N 26°05' W 080°07'0 0.0
2014-Oct-23 17:27N 26°05' W 080°07'0 0.0
2014-Oct-23 16:27N 26°05' W 080°07'0 0.0
2014-Oct-23 15:27N 26°05' W 080°07'0 0.0
2014-Oct-23 14:27N 26°05' W 080°07'0 0.0
2014-Oct-23 13:27N 26°05' W 080°07'0 0.0
2014-Oct-23 12:30N 26°05' W 080°07'0 0.0
2014-Oct-23 11:30N 26°05' W 080°07'0 0.0
2014-Oct-23 10:30N 26°05' W 080°07'0 0.0
2014-Oct-23 09:30N 26°05' W 080°07'0 0.0
2014-Oct-23 08:30N 26°05' W 080°07'0 0.0
2014-Oct-23 07:33N 26°05' W 080°07'0 0.0
2014-Oct-23 06:33N 26°05' W 080°07'0 0.0
2014-Oct-23 05:33N 26°05' W 080°07'0 0.0
2014-Oct-23 04:33N 26°05' W 080°07'0 0.0
2014-Oct-23 03:33N 26°05' W 080°07'0 0.0
2014-Oct-23 02:33N 26°05' W 080°07'0 0.0
2014-Oct-23 01:33N 26°05' W 080°07'0 0.0
2014-Oct-23 00:33N 26°05' W 080°07'0 0.0
2014-Oct-22 23:33N 26°05' W 080°07'0 0.0
2014-Oct-22 22:33N 26°05' W 080°07'0 0.0
2014-Oct-22 21:33N 26°05' W 080°07'0 0.0
2014-Oct-22 20:33N 26°05' W 080°07'0 0.0
2014-Oct-22 19:33N 26°05' W 080°07'0 0.0
2014-Oct-22 18:24N 26°05' W 080°07'0 0.0
2014-Oct-22 17:27N 26°05' W 080°07'4 4.2
2014-Oct-22 16:33N 26°03' W 080°04'1615.9
2014-Oct-22 15:33N 25°47' W 080°01'  
2014-Oct-17 00:06N 25°35' W 080°02'611.1
2014-Oct-16 23:33N 25°41' W 080°02'1111.4
2014-Oct-16 22:33N 25°52' W 080°03'1212.1
2014-Oct-16 21:33N 26°04' W 080°05'3 2.2
2014-Oct-16 20:24N 26°05' W 080°07'0 0.0
2014-Oct-16 19:27N 26°05' W 080°07'0 0.0
2014-Oct-16 18:27N 26°05' W 080°07'0 0.0
2014-Oct-16 17:27N 26°05' W 080°07'0 0.0
2014-Oct-16 16:27N 26°05' W 080°07'0 0.0
2014-Oct-16 15:27N 26°05' W 080°07'0 0.0
2014-Oct-16 14:30N 26°05' W 080°07'0 0.0
2014-Oct-16 13:30N 26°05' W 080°07'0 0.0
2014-Oct-16 12:30N 26°05' W 080°07'0 0.0
2014-Oct-16 11:30N 26°05' W 080°07'0 0.0
2014-Oct-16 10:27N 26°05' W 080°07'0 0.0
2014-Oct-16 09:33N 26°05' W 080°07'0 0.0
2014-Oct-16 08:33N 26°05' W 080°07'0 0.0
2014-Oct-16 07:33N 26°05' W 080°07'0 0.0
2014-Oct-16 06:30N 26°05' W 080°07'0 0.0
2014-Oct-16 05:33N 26°05' W 080°07'0 0.0
2014-Oct-16 04:30N 26°05' W 080°07'0 0.0
2014-Oct-16 03:33N 26°05' W 080°07'0 0.0
2014-Oct-16 02:33N 26°05' W 080°07'0 0.0
2014-Oct-16 01:33N 26°05' W 080°07'0 0.0
2014-Oct-16 00:33N 26°05' W 080°07'0 0.0
2014-Oct-15 23:33N 26°05' W 080°07'0 0.0
2014-Oct-15 22:33N 26°05' W 080°07'0 0.0
2014-Oct-15 21:24N 26°05' W 080°07'0 0.0
2014-Oct-15 20:24N 26°05' W 080°07'0 0.0
2014-Oct-15 19:24N 26°05' W 080°07'1 1.5
2014-Oct-15 18:33N 26°06' W 080°06'1514.8
2014-Oct-15 17:34N 25°52' W 079°60'  

Dump ship's entire track history